createdAt,value
2019-01-15T00:01:52.811Z,-0.60
2019-01-15T00:04:21.234Z,-0.60
2019-01-15T00:06:49.661Z,-0.60
2019-01-15T00:09:18.078Z,-0.60
2019-01-15T00:11:46.505Z,-0.60
2019-01-15T00:14:15.017Z,-0.60
2019-01-15T00:16:43.529Z,-0.60
2019-01-15T00:19:11.997Z,-0.60
2019-01-15T00:21:40.428Z,-0.60
2019-01-15T00:24:08.838Z,-0.50
2019-01-15T00:26:37.266Z,-0.50
2019-01-15T00:29:05.685Z,-0.50
2019-01-15T00:31:34.097Z,-0.60
2019-01-15T00:34:02.519Z,-0.50
2019-01-15T00:36:30.955Z,-0.60
2019-01-15T00:38:59.394Z,-0.60
2019-01-15T00:41:27.801Z,-0.60
2019-01-15T00:43:56.238Z,-0.60
2019-01-15T00:46:24.690Z,-0.60
2019-01-15T00:48:53.185Z,-0.60
2019-01-15T00:51:21.600Z,-0.60
2019-01-15T00:53:50.279Z,-0.60
2019-01-15T00:56:18.702Z,-0.50
2019-01-15T00:58:47.439Z,-0.50
2019-01-15T01:01:15.842Z,-0.60
2019-01-15T01:03:44.256Z,-0.60
2019-01-15T01:06:12.687Z,-0.60
2019-01-15T01:08:41.159Z,-0.60
2019-01-15T01:11:09.613Z,-0.50
2019-01-15T01:13:38.026Z,-0.60
2019-01-15T01:16:06.573Z,-0.60
2019-01-15T01:18:34.995Z,-0.50
2019-01-15T01:21:03.428Z,-0.60
2019-01-15T01:23:32.083Z,-0.60
2019-01-15T01:26:00.580Z,-0.70
2019-01-15T01:28:29.008Z,-0.70
2019-01-15T01:30:57.430Z,-0.70
2019-01-15T01:33:25.957Z,-0.60
2019-01-15T01:35:54.373Z,-0.60
2019-01-15T01:38:22.797Z,-0.50
2019-01-15T01:40:51.212Z,-0.60
2019-01-15T01:43:19.637Z,-0.70
2019-01-15T01:45:48.043Z,-0.60
2019-01-15T01:48:16.601Z,-0.70
2019-01-15T01:50:45.017Z,-0.70
2019-01-15T01:53:13.413Z,-0.70
2019-01-15T01:55:41.908Z,-0.60
2019-01-15T01:58:10.321Z,-0.60
2019-01-15T02:00:38.745Z,-0.60
2019-01-15T02:03:07.159Z,-0.60
2019-01-15T02:05:35.671Z,-0.60
2019-01-15T02:08:04.247Z,-0.60
2019-01-15T02:10:32.837Z,-0.60
2019-01-15T02:13:01.289Z,-0.60
2019-01-15T02:15:29.684Z,-0.60
2019-01-15T02:17:58.140Z,-0.60
2019-01-15T02:20:26.576Z,-0.60
2019-01-15T02:22:54.985Z,-0.60
2019-01-15T02:25:23.391Z,-0.60
2019-01-15T02:27:52.889Z,-0.60
2019-01-15T02:30:23.166Z,-0.60
2019-01-15T02:32:51.659Z,-0.70
2019-01-15T02:35:20.157Z,-0.70
2019-01-15T02:37:48.656Z,-0.70
2019-01-15T02:40:17.193Z,-0.80
2019-01-15T02:42:46.657Z,-0.80
2019-01-15T02:45:18.392Z,-0.80
2019-01-15T02:47:47.140Z,-0.90
2019-01-15T02:50:17.869Z,-0.90
2019-01-15T02:52:46.313Z,-1.00
2019-01-15T02:55:14.903Z,-1.00
2019-01-15T02:57:43.326Z,-1.00
2019-01-15T03:00:21.165Z,-1.00
2019-01-15T03:02:49.598Z,-1.00
2019-01-15T03:05:18.158Z,-1.00
2019-01-15T03:07:46.572Z,-1.00
2019-01-15T03:10:17.597Z,-1.00
2019-01-15T03:12:54.819Z,-1.00
2019-01-15T03:15:17.805Z,-1.10
2019-01-15T03:17:46.364Z,-1.10
2019-01-15T03:20:16.400Z,-1.10
2019-01-15T03:22:44.915Z,-1.10
2019-01-15T03:25:13.778Z,-1.10
2019-01-15T03:27:42.196Z,-1.20
2019-01-15T03:30:16.268Z,-1.10
2019-01-15T03:32:44.757Z,-1.10
2019-01-15T03:35:13.360Z,-1.10
2019-01-15T03:37:41.884Z,-1.10
2019-01-15T03:40:13.453Z,-1.10
2019-01-15T03:42:41.858Z,-1.10
2019-01-15T03:45:10.377Z,-1.00
2019-01-15T03:47:38.858Z,-1.00
2019-01-15T03:50:08.916Z,-0.90
2019-01-15T03:52:37.347Z,-0.90
2019-01-15T03:55:08.824Z,-0.90
2019-01-15T03:57:37.229Z,-0.90
2019-01-15T04:02:45.789Z,-0.90
2019-01-15T04:05:15.444Z,-0.90
2019-01-15T04:07:44.538Z,-0.90
2019-01-15T04:10:13.115Z,-0.90
2019-01-15T04:12:41.519Z,-0.90
2019-01-15T04:15:13.891Z,-0.90
2019-01-15T04:17:42.659Z,-0.90
2019-01-15T04:20:13.544Z,-0.90
2019-01-15T04:22:41.989Z,-0.90
2019-01-15T04:25:11.306Z,-0.90
2019-01-15T04:27:39.751Z,-1.00
2019-01-15T04:30:16.512Z,-0.90
2019-01-15T04:32:44.944Z,-0.90
2019-01-15T04:35:13.769Z,-1.00
2019-01-15T04:37:42.253Z,-0.90
2019-01-15T04:40:13.405Z,-0.90
2019-01-15T04:42:41.860Z,-0.90
2019-01-15T04:45:12.909Z,-0.90
2019-01-15T04:47:41.375Z,-0.90
2019-01-15T04:50:10.434Z,-0.90
2019-01-15T04:52:40.227Z,-0.80
2019-01-15T04:55:12.192Z,-0.80
2019-01-15T04:57:40.624Z,-0.80
2019-01-15T05:00:14.597Z,-0.70
2019-01-15T05:02:43.199Z,-0.80
2019-01-15T05:05:11.871Z,-0.80
2019-01-15T05:07:40.307Z,-0.80
2019-01-15T05:10:11.457Z,-0.70
2019-01-15T05:12:39.928Z,-0.70
2019-01-15T05:15:13.012Z,-0.70
2019-01-15T05:17:41.282Z,-0.70
2019-01-15T05:20:17.973Z,-0.70
2019-01-15T05:22:46.695Z,-0.70
2019-01-15T05:25:17.261Z,-0.60
2019-01-15T05:27:45.743Z,-0.60
2019-01-15T05:30:19.757Z,-0.50
2019-01-15T05:32:48.183Z,-0.50
2019-01-15T05:35:16.593Z,-0.50
2019-01-15T05:37:45.081Z,-0.50
2019-01-15T05:40:14.950Z,-0.50
2019-01-15T05:42:43.463Z,-0.50
2019-01-15T05:45:21.682Z,-0.50
2019-01-15T05:47:51.159Z,-0.50
2019-01-15T05:50:36.282Z,-0.50
2019-01-15T05:53:04.761Z,-0.50
2019-01-15T05:55:33.197Z,-0.50
2019-01-15T05:58:01.623Z,-0.50
2019-01-15T06:00:30.050Z,-0.40
2019-01-15T06:02:58.472Z,-0.40
2019-01-15T06:05:26.895Z,-0.40
2019-01-15T06:07:55.317Z,-0.40
2019-01-15T06:10:23.745Z,-0.30
2019-01-15T06:12:52.154Z,-0.30
2019-01-15T06:15:20.634Z,-0.30
2019-01-15T06:17:49.069Z,-0.30
2019-01-15T06:20:21.282Z,-0.30
2019-01-15T06:22:49.733Z,-0.30
2019-01-15T06:25:18.263Z,-0.30
2019-01-15T06:27:46.770Z,-0.20
2019-01-15T06:30:22.100Z,-0.20
2019-01-15T06:32:50.516Z,-0.20
2019-01-15T06:35:19.007Z,-0.20
2019-01-15T06:37:47.557Z,-0.10
2019-01-15T06:40:17.621Z,-0.10
2019-01-15T06:42:46.038Z,-0.10
2019-01-15T06:45:20.130Z,-0.10
2019-01-15T06:47:48.541Z,-0.10
2019-01-15T06:50:17.038Z,-0.10
2019-01-15T06:52:45.514Z,-0.10
2019-01-15T06:55:16.392Z,-0.10
2019-01-15T06:57:46.440Z,-0.10
2019-01-15T07:00:19.546Z,0.00
2019-01-15T07:02:48.024Z,0.00
2019-01-15T07:05:16.458Z,0.00
2019-01-15T07:07:44.865Z,0.00
2019-01-15T07:10:21.986Z,0.00
2019-01-15T07:12:50.398Z,0.00
2019-01-15T07:15:18.838Z,0.00
2019-01-15T07:17:47.249Z,0.10
2019-01-15T07:20:16.647Z,0.10
2019-01-15T07:22:45.150Z,0.10
2019-01-15T07:25:18.773Z,0.10
2019-01-15T07:27:47.206Z,0.10
2019-01-15T07:30:24.309Z,0.10
2019-01-15T07:32:52.748Z,0.20
2019-01-15T07:35:21.165Z,0.30
2019-01-15T07:37:49.672Z,0.30
2019-01-15T07:40:18.077Z,0.30
2019-01-15T07:42:46.509Z,0.30
2019-01-15T07:45:15.026Z,0.30
2019-01-15T07:47:43.435Z,0.30
2019-01-15T07:50:14.557Z,0.30
2019-01-15T07:52:43.245Z,0.30
2019-01-15T07:55:14.393Z,0.40
2019-01-15T07:57:42.815Z,0.40
2019-01-15T08:00:14.534Z,0.40
2019-01-15T08:02:42.966Z,0.50
2019-01-15T08:05:13.924Z,0.50
2019-01-15T08:07:42.329Z,0.50
2019-01-15T08:10:13.499Z,0.60
2019-01-15T08:12:41.915Z,0.60
2019-01-15T08:15:13.271Z,0.70
2019-01-15T08:17:41.679Z,0.70
2019-01-15T08:20:12.537Z,0.70
2019-01-15T08:22:41.190Z,0.70
2019-01-15T08:25:12.201Z,0.70
2019-01-15T08:27:40.629Z,0.70
2019-01-15T08:30:21.168Z,0.80
2019-01-15T08:32:49.665Z,0.80
2019-01-15T08:35:18.166Z,0.80
2019-01-15T08:37:46.578Z,0.80
2019-01-15T08:40:18.472Z,0.80
2019-01-15T08:42:46.970Z,0.90
2019-01-15T08:45:16.977Z,0.90
2019-01-15T08:47:50.282Z,0.90
2019-01-15T08:50:21.844Z,0.90
2019-01-15T08:52:50.261Z,0.90
2019-01-15T08:55:18.678Z,1.00
2019-01-15T08:57:47.162Z,1.00
2019-01-15T09:00:15.738Z,1.00
2019-01-15T09:02:44.214Z,1.10
2019-01-15T09:05:12.762Z,1.10
2019-01-15T09:07:41.254Z,1.10
2019-01-15T09:10:12.485Z,1.20
2019-01-15T09:12:40.888Z,1.30
2019-01-15T09:15:12.063Z,1.30
2019-01-15T09:17:40.468Z,1.30
2019-01-15T09:20:11.995Z,1.40
2019-01-15T09:22:40.501Z,1.50
2019-01-15T09:25:08.981Z,1.50
2019-01-15T09:27:37.412Z,1.30
2019-01-15T09:30:11.541Z,1.30
2019-01-15T09:32:39.978Z,1.30
2019-01-15T09:35:08.659Z,1.30
2019-01-15T09:37:37.135Z,1.40
2019-01-15T09:40:08.630Z,1.40
2019-01-15T09:42:37.046Z,1.50
2019-01-15T09:45:14.105Z,1.60
2019-01-15T09:47:44.149Z,1.70
2019-01-15T09:50:13.210Z,1.90
2019-01-15T09:52:41.695Z,2.00
2019-01-15T09:55:10.297Z,1.90
2019-01-15T09:57:38.783Z,1.90
2019-01-15T10:00:13.425Z,1.90
2019-01-15T10:02:41.855Z,2.10
2019-01-15T10:05:10.334Z,2.10
2019-01-15T10:07:38.756Z,2.10
2019-01-15T10:10:15.234Z,2.10
2019-01-15T10:12:43.645Z,2.00
2019-01-15T10:15:14.969Z,2.00
2019-01-15T10:17:43.395Z,2.00
2019-01-15T10:20:13.650Z,1.90
2019-01-15T10:22:42.075Z,1.80
2019-01-15T10:25:12.142Z,1.80
2019-01-15T10:27:40.940Z,1.70
2019-01-15T10:30:12.798Z,1.70
2019-01-15T10:32:44.303Z,1.60
2019-01-15T10:35:18.462Z,1.60
2019-01-15T10:37:46.898Z,1.60
2019-01-15T10:40:15.318Z,1.60
2019-01-15T10:42:43.750Z,1.60
2019-01-15T10:45:12.297Z,1.70
2019-01-15T10:47:40.713Z,1.70
2019-01-15T10:50:12.069Z,1.70
2019-01-15T10:52:40.482Z,1.70
2019-01-15T10:55:09.439Z,1.70
2019-01-15T10:57:37.851Z,1.80
2019-01-15T11:00:09.363Z,1.80
2019-01-15T11:02:37.771Z,1.80
2019-01-15T11:05:08.758Z,1.70
2019-01-15T11:07:37.170Z,1.70
2019-01-15T11:10:08.653Z,1.70
2019-01-15T11:12:37.065Z,1.70
2019-01-15T11:15:08.189Z,1.70
2019-01-15T11:17:36.635Z,1.70
2019-01-15T11:20:10.773Z,1.70
2019-01-15T11:22:39.205Z,1.80
2019-01-15T11:25:08.255Z,1.80
2019-01-15T11:27:36.692Z,1.80
2019-01-15T11:30:08.509Z,1.80
2019-01-15T11:32:36.929Z,1.80
2019-01-15T11:35:08.592Z,1.80
2019-01-15T11:37:37.002Z,1.80
2019-01-15T11:40:08.329Z,1.80
2019-01-15T11:42:36.743Z,1.80
2019-01-15T11:45:13.830Z,1.90
2019-01-15T11:47:42.245Z,1.90
2019-01-15T11:50:13.879Z,1.90
2019-01-15T11:52:42.294Z,2.00
2019-01-15T11:55:10.713Z,1.90
2019-01-15T11:57:39.124Z,2.00
2019-01-15T12:00:13.547Z,1.90
2019-01-15T12:02:42.328Z,1.90
2019-01-15T12:05:28.580Z,2.00
2019-01-15T12:08:10.576Z,2.00
2019-01-15T12:10:56.684Z,2.00
2019-01-15T12:13:26.910Z,2.00
2019-01-15T12:15:57.109Z,2.00
2019-01-15T12:18:41.937Z,2.00
2019-01-15T12:21:14.876Z,2.00
2019-01-15T12:23:50.490Z,2.10
2019-01-15T12:26:20.546Z,2.10
2019-01-15T12:28:56.542Z,2.00
2019-01-15T12:31:26.661Z,2.00
2019-01-15T12:33:56.726Z,2.00
2019-01-15T12:36:32.918Z,2.00
2019-01-15T12:39:05.621Z,2.00
2019-01-15T12:41:41.310Z,1.90
2019-01-15T12:44:11.371Z,1.90
2019-01-15T12:46:41.427Z,1.90
2019-01-15T12:49:11.481Z,1.90
2019-01-15T12:51:44.457Z,1.80
2019-01-15T12:54:14.526Z,1.90
2019-01-15T12:57:00.554Z,1.90
2019-01-15T12:59:33.527Z,1.90
2019-01-15T13:02:19.861Z,1.90
2019-01-15T13:04:59.038Z,1.90
2019-01-15T13:07:37.807Z,1.90
2019-01-15T13:10:27.432Z,2.00
2019-01-15T13:12:57.477Z,2.00
2019-01-15T13:15:34.738Z,2.00
2019-01-15T13:18:21.081Z,2.00
2019-01-15T13:21:03.137Z,2.10
2019-01-15T13:23:35.876Z,2.10
2019-01-15T13:26:06.066Z,2.20
2019-01-15T13:28:39.187Z,2.20
2019-01-15T13:31:11.956Z,2.20
2019-01-15T13:33:42.005Z,2.20
2019-01-15T13:36:14.977Z,2.30
2019-01-15T13:38:45.021Z,2.30
2019-01-15T13:41:27.189Z,2.20
2019-01-15T13:44:06.280Z,2.30
2019-01-15T13:46:36.394Z,2.30
2019-01-15T13:49:22.910Z,2.30
2019-01-15T13:51:55.904Z,2.30
2019-01-15T13:54:34.935Z,2.30
2019-01-15T13:57:05.016Z,2.20
2019-01-15T13:59:46.788Z,2.20
2019-01-15T14:02:31.618Z,2.30
2019-01-15T14:05:17.745Z,2.30
2019-01-15T14:07:47.817Z,2.20
2019-01-15T14:10:20.662Z,2.20
2019-01-15T14:12:53.850Z,2.20
2019-01-15T14:15:23.910Z,2.20
2019-01-15T14:17:53.978Z,2.10
2019-01-15T14:20:24.019Z,2.10
2019-01-15T14:23:10.307Z,2.10
2019-01-15T14:25:56.661Z,2.10
2019-01-15T14:28:26.724Z,2.10
2019-01-15T14:31:08.849Z,2.10
2019-01-15T14:33:44.781Z,2.10
2019-01-15T14:36:31.293Z,2.10
2019-01-15T14:39:16.224Z,2.10
2019-01-15T14:41:49.026Z,2.10
2019-01-15T14:44:19.079Z,2.10
2019-01-15T14:46:57.426Z,2.10
2019-01-15T14:49:27.490Z,2.00
2019-01-15T14:52:06.262Z,2.00
2019-01-15T14:54:44.992Z,2.00
2019-01-15T14:57:17.861Z,2.00
2019-01-15T14:59:59.947Z,2.00
2019-01-15T15:02:35.681Z,2.00
2019-01-15T15:05:07.670Z,2.00
2019-01-15T15:07:55.549Z,1.90
2019-01-15T15:10:34.341Z,2.00
2019-01-15T15:13:04.396Z,2.00
2019-01-15T15:15:43.580Z,2.00
2019-01-15T15:18:30.039Z,2.00
2019-01-15T15:21:03.045Z,2.00
2019-01-15T15:23:44.655Z,2.00
2019-01-15T15:26:32.836Z,2.00
2019-01-15T15:29:08.567Z,2.00
2019-01-15T15:31:53.460Z,2.00
2019-01-15T15:34:28.991Z,2.00
2019-01-15T15:37:15.062Z,2.00
2019-01-15T15:40:01.477Z,2.00
2019-01-15T15:42:37.482Z,2.00
2019-01-15T15:45:09.793Z,2.00
2019-01-15T15:47:39.837Z,2.00
2019-01-15T15:50:17.845Z,2.00
2019-01-15T15:53:05.767Z,2.10
2019-01-15T15:55:54.342Z,2.00
2019-01-15T15:58:36.415Z,2.10
2019-01-15T16:01:15.101Z,2.00
2019-01-15T16:04:01.502Z,2.00
2019-01-15T16:06:40.573Z,2.00
2019-01-15T16:09:16.370Z,2.00
2019-01-15T16:11:52.108Z,2.10
2019-01-15T16:14:34.209Z,2.10
2019-01-15T16:17:20.398Z,2.10
2019-01-15T16:20:02.520Z,2.10
2019-01-15T16:22:44.658Z,2.10
2019-01-15T16:25:20.751Z,2.10
2019-01-15T16:28:06.794Z,2.10
2019-01-15T16:30:53.201Z,2.10
2019-01-15T16:33:26.215Z,2.10
2019-01-15T16:35:59.193Z,2.10
2019-01-15T16:38:44.269Z,2.10
2019-01-15T16:41:23.180Z,2.20
2019-01-15T16:43:59.380Z,2.20
2019-01-15T16:46:47.753Z,2.10
2019-01-15T16:49:20.738Z,2.20
2019-01-15T16:51:53.442Z,2.20
2019-01-15T16:54:23.499Z,2.20
2019-01-15T16:56:56.595Z,2.20
2019-01-15T16:59:26.646Z,2.20
2019-01-15T17:01:56.691Z,2.20
2019-01-15T17:04:26.737Z,2.20
2019-01-15T17:07:12.766Z,2.20
2019-01-15T17:09:48.798Z,2.20
2019-01-15T17:12:34.866Z,2.10
2019-01-15T17:15:22.198Z,2.20
2019-01-15T17:17:57.934Z,2.20
2019-01-15T17:20:27.981Z,2.30
2019-01-15T17:22:58.031Z,2.20
2019-01-15T17:25:28.074Z,2.20
2019-01-15T17:28:03.846Z,2.30
2019-01-15T17:30:36.550Z,2.30
2019-01-15T17:33:15.433Z,2.30
2019-01-15T17:35:45.477Z,2.30
2019-01-15T17:38:30.374Z,2.30
2019-01-15T17:41:15.066Z,2.30
2019-01-15T17:43:47.851Z,2.30
2019-01-15T17:46:17.905Z,2.30
2019-01-15T17:49:04.194Z,2.30
2019-01-15T17:51:34.242Z,2.30
2019-01-15T17:54:10.229Z,2.30
2019-01-15T17:56:49.248Z,2.30
2019-01-15T17:59:19.326Z,2.30
2019-01-15T18:01:58.090Z,2.30
2019-01-15T18:04:44.190Z,2.30
2019-01-15T18:07:23.247Z,2.30
2019-01-15T18:09:53.316Z,2.30
2019-01-15T18:12:35.259Z,2.30
2019-01-15T18:15:18.450Z,2.30
2019-01-15T18:17:51.446Z,2.30
2019-01-15T18:20:24.258Z,2.30
2019-01-15T18:23:03.250Z,2.30
2019-01-15T18:25:36.267Z,2.30
2019-01-15T18:28:12.495Z,2.30
2019-01-15T18:30:42.578Z,2.30
2019-01-15T18:33:27.692Z,2.30
2019-01-15T18:36:00.179Z,2.30
2019-01-15T18:38:35.949Z,2.30
2019-01-15T18:41:06.030Z,2.30
2019-01-15T18:43:38.788Z,2.30
2019-01-15T18:46:11.587Z,2.30
2019-01-15T18:48:47.537Z,2.30
2019-01-15T18:51:20.255Z,2.30
2019-01-15T18:53:52.974Z,2.40
2019-01-15T18:56:31.938Z,2.40
2019-01-15T18:59:19.920Z,2.30
2019-01-15T19:01:52.673Z,2.40
2019-01-15T19:04:25.386Z,2.40
2019-01-15T19:06:58.138Z,2.40
2019-01-15T19:09:40.192Z,2.30
2019-01-15T19:12:12.952Z,2.40
2019-01-15T19:14:45.951Z,2.30
2019-01-15T19:17:16.059Z,2.30
2019-01-15T19:19:46.092Z,2.30
2019-01-15T19:22:18.663Z,2.30
2019-01-15T19:25:06.740Z,2.30
2019-01-15T19:27:36.798Z,2.30
2019-01-15T19:30:24.663Z,2.30
2019-01-15T19:32:54.713Z,2.30
2019-01-15T19:35:33.594Z,2.30
2019-01-15T19:38:15.495Z,2.30
2019-01-15T19:41:01.549Z,2.30
2019-01-15T19:43:31.611Z,2.30
2019-01-15T19:46:04.407Z,2.40
2019-01-15T19:48:46.169Z,2.40
2019-01-15T19:51:16.245Z,2.40
2019-01-15T19:53:52.249Z,2.40
2019-01-15T19:56:34.140Z,2.40
2019-01-15T19:59:06.935Z,2.40
2019-01-15T20:01:49.013Z,2.40
2019-01-15T20:04:21.965Z,2.40
2019-01-15T20:07:08.525Z,2.40
2019-01-15T20:09:44.273Z,2.40
2019-01-15T20:12:30.622Z,2.40
2019-01-15T20:15:09.229Z,2.40
2019-01-15T20:17:39.292Z,2.40
2019-01-15T20:20:13.803Z,2.40
2019-01-15T20:22:49.589Z,2.40
2019-01-15T20:25:37.506Z,2.40
2019-01-15T20:28:25.445Z,2.40
2019-01-15T20:31:04.058Z,2.40
2019-01-15T20:33:34.132Z,2.50
2019-01-15T20:36:04.210Z,2.50
2019-01-15T20:38:34.352Z,2.50
2019-01-15T20:41:04.383Z,2.40
2019-01-15T20:43:43.509Z,2.50
2019-01-15T20:46:22.642Z,2.50
2019-01-15T20:49:07.562Z,2.40
2019-01-15T20:51:40.292Z,2.50
2019-01-15T20:54:10.327Z,2.50
2019-01-15T20:56:56.701Z,2.50
2019-01-15T20:59:26.799Z,2.50
2019-01-15T21:01:56.857Z,2.50
2019-01-15T21:04:35.657Z,2.50
2019-01-15T21:07:11.462Z,2.40
2019-01-15T21:09:56.351Z,2.40
2019-01-15T21:12:38.085Z,2.40
2019-01-15T21:15:25.720Z,2.40
2019-01-15T21:18:12.082Z,2.40
2019-01-15T21:20:54.175Z,2.50
2019-01-15T21:23:40.269Z,2.40
2019-01-15T21:26:16.399Z,2.40
2019-01-15T21:29:04.094Z,2.40
2019-01-15T21:31:50.190Z,2.40
2019-01-15T21:34:23.144Z,2.40
2019-01-15T21:37:02.169Z,2.40
2019-01-15T21:39:48.574Z,2.40
2019-01-15T21:42:34.826Z,2.40
2019-01-15T21:45:10.844Z,2.40
2019-01-15T21:47:43.550Z,2.40
2019-01-15T21:50:13.601Z,2.40
2019-01-15T21:53:00.035Z,2.40
2019-01-15T21:55:39.154Z,2.30
2019-01-15T21:58:21.308Z,2.40
2019-01-15T22:00:54.278Z,2.40
2019-01-15T22:03:27.405Z,2.30
2019-01-15T22:05:59.894Z,2.40
2019-01-15T22:08:38.702Z,2.40
2019-01-15T22:11:17.485Z,2.30
2019-01-15T22:13:59.458Z,2.30
2019-01-15T22:16:29.506Z,2.30
2019-01-15T22:18:59.564Z,2.30
2019-01-15T22:21:38.310Z,2.30
2019-01-15T22:24:20.234Z,2.30
2019-01-15T22:26:59.331Z,2.30
2019-01-15T22:29:35.101Z,2.30
2019-01-15T22:32:08.073Z,2.30
2019-01-15T22:34:52.961Z,2.20
2019-01-15T22:37:38.086Z,2.20
2019-01-15T22:40:26.322Z,2.30
2019-01-15T22:43:08.499Z,2.20
2019-01-15T22:45:54.630Z,2.20
2019-01-15T22:48:40.994Z,2.20
2019-01-15T22:51:19.919Z,2.20
2019-01-15T22:53:58.845Z,2.20
2019-01-15T22:56:40.786Z,2.20
2019-01-15T22:59:16.825Z,2.20
2019-01-15T23:01:52.854Z,2.10
2019-01-15T23:04:22.917Z,2.20
2019-01-15T23:06:52.981Z,2.20
2019-01-15T23:09:28.686Z,2.20
2019-01-15T23:12:01.524Z,2.20
2019-01-15T23:14:34.521Z,2.20
2019-01-15T23:17:13.728Z,2.20
2019-01-15T23:20:00.184Z,2.20
2019-01-15T23:22:45.353Z,2.20
2019-01-15T23:25:33.290Z,2.20
2019-01-15T23:28:19.686Z,2.20
2019-01-15T23:30:55.732Z,2.20
2019-01-15T23:33:28.748Z,2.20
2019-01-15T23:36:13.894Z,2.30
2019-01-15T23:38:44.044Z,2.30
2019-01-15T23:41:16.807Z,2.30
2019-01-15T23:43:52.821Z,2.30
2019-01-15T23:46:39.093Z,2.30
2019-01-15T23:49:21.114Z,2.40
2019-01-15T23:51:51.415Z,2.40
2019-01-15T23:54:27.495Z,2.30
2019-01-15T23:57:00.314Z,2.30
2019-01-15T23:59:39.526Z,2.30
